Terminal Aerodrome Forecast
Issued by NWS Corpus Christi, TX

Home | Current Version | Previous Version | Text Only | Print | Product List | Glossary On
Versions: 1 2 3 4 5 6 7 8 9 10 11 12 13 14 15 16 17 18 19 20
000
FTUS44 KCRP 251326 AAA
TAFVCT
TAF AMD
KVCT 251326Z 2513/2612 22008KT P6SM SCT008 OVC014
      TEMPO 2513/2515 5SM -SHRA BR BKN008 OVC014
     FM251500 33009KT P6SM BKN020
     FM251800 35008KT P6SM SCT030
     FM252300 12006KT P6SM SKC
     FM260800 15005KT 3SM BR BKN005 OVC015=

USA.gov is the U.S. government's official web portal to all federal, state and local government web resources and services.